首页
METAR-TAF:

METAR-TAF

机场 :

雅典埃莱夫塞里奥斯·韦尼泽洛斯国际机场

雅典, 希腊

纬度: 37-56N, 经度: 023-56E, 海拔: 94米

当前天气观测

该预报发布于46分钟前的13:50 UTC
风速10节,风向
温度 18°C
湿度 77%
气压 1014 hPa
能見度: 8000
少量云层高于1500英尺
散云层高于3000英尺
多云层高于7000英尺

METAR: LGAV 231350Z 01010KT 8000 FEW015 SCT030 BKN070 18/14 Q1014 NOSIG

时间: 17:36 (14:36 UTC)

预报

该预报发布于3小时和36分钟前的11:00 UTC
预报有效从23日的 12点(UTC)到 24日的 12点(UTC)
风速15节,风向
能見度: 8000
散云层高于2000英尺
多云层高于7000英尺
几率 40% :
短暂存在
从 23日的 12点(UTC)到 24日的 03点(UTC)
能見度: 5000
几率 30% :
短暂存在
从 23日的 15点(UTC)到 24日的 03点(UTC)
能見度: 4000
散云层高于1200英尺
少量云层高于1800英尺, 积雨云.
多云层高于2000英尺
阴天层高于7000英尺
雷暴, 雨
成为
从 24日的 07点(UTC)到 24日的 09点(UTC)
散云层高于2000英尺

TAF: LGAV 231100Z 2312/2412 01015KT 8000 SCT020 BKN070 PROB40 TEMPO 2312/2403 5000 RA PROB30 TEMPO 2315/2403 4000 TSRA SCT012 FEW018CB BKN020 OVC070 BECMG 2407/2409 SCT020

超过4000个机场的气象观测和天气预报(METAR&TAF报告)。

可查询的气象台以黄色和红色小点在地图上表示。

将鼠标移到小点上方,可查看气象台名称。

然后点击查看天气观测和预报。

如需切换地图:点击带黑十字的绿色按钮放大地图;点击带横线的绿色按钮缩小地图;或者点击绿色箭头查看邻近地区的地图。


METAR-TAF: